Weather History for Pinedale, WY

Change the Weather History Date:

Friday, March 29, 2013

  Actual Average (KBPI) Record (KBPI)
Temperature  
Mean Temperature 38 °F 32 °F  
Max Temperature 50 °F 47 °F 58 °F (2004)
Min Temperature 26 °F 18 °F 4 °F (1980)
Degree Days  
Heating Degree Days 27 33  
Month to date heating degree days 1108  
Since 1 July heating degree days 8631  
Cooling Degree Days 0 0  
Month to date cooling degree days 0  
Year to date cooling degree days 0  
Moisture  
Dew Point 28 °F    
Average Humidity 76    
Maximum Humidity 100    
Minimum Humidity 40    
Precipitation  
Precipitation 0.00 in 0.02 in 0.12 in (1989)
Month to date precipitation 0.40  
Year to date precipitation 1.06  
Sea Level Pressure  
Sea Level Pressure 30.19 in    
Wind  
Wind Speed 7 mph (WNW)    
Max Wind Speed 24 mph    
Max Gust Speed 37 mph    
Visibility 10 miles    
Events Rain    
T = Trace of Precipitation, MM = Missing Value Source: NWS Daily Summary

Daily Weather History Graph

Daily Weather History Graph

Search for Another Location

Airport:

Trip Planner

Search our weather history database for the weather conditions in past years. The results will help you decide how hot, cold, wet, or windy it might be!

Date:

Astronomy

Mar. 29, 2013 Rise Set
Actual Time 7:06 AM MDT 7:42 PM MDT
Civil Twilight 6:37 AM MDT 8:10 PM MDT
Nautical Twilight 6:04 AM MDT 8:44 PM MDT
Astronomical Twilight 5:29 AM MDT 9:19 PM MDT
Moon 10:51 PM MDT (3/29) 8:13 AM MDT (3/29)
Length of Visible Light 13h 33m
Length of Day
12h 36m
Waning Gibbous, 93% of the Moon is Illuminated
Mar 29
Waning Gibbous
Apr 2
Last Quarter
Apr 10
New
Apr 18
First Quarter
Apr 25
Full

Hourly Weather History & Observations

Time (MDT) Temp. Windchill Dew Point Humidity Pressure Visibility Wind Dir Wind Speed Gust Speed Precip Events Conditions
12:15 AM 32.0 °F 26.4 °F 26.6 °F 80% 30.15 in 10.0 mi WNW 5.8 mph - N/A   Scattered Clouds
12:35 AM 32.0 °F 26.4 °F 26.6 °F 80% 30.15 in 10.0 mi NW 5.8 mph - N/A   Scattered Clouds
12:55 AM 32.0 °F - 26.6 °F 80% 30.16 in 10.0 mi Calm Calm - N/A   Scattered Clouds
1:15 AM 30.2 °F 26.7 °F 26.6 °F 86% 30.16 in 10.0 mi NNW 3.5 mph - N/A   Scattered Clouds
1:35 AM 30.2 °F 25.4 °F 26.6 °F 86% 30.15 in 10.0 mi NW 4.6 mph - N/A   Mostly Cloudy
1:55 AM 28.4 °F 24.6 °F 24.8 °F 86% 30.15 in 10.0 mi WNW 3.5 mph - N/A   Scattered Clouds
2:15 AM 26.6 °F 18.2 °F 26.6 °F 100% 30.16 in 10.0 mi NW 8.1 mph - N/A   Clear
2:35 AM 26.6 °F 21.2 °F 26.6 °F 100% 30.16 in 10.0 mi WNW 4.6 mph - N/A   Clear
2:55 AM 26.6 °F 21.2 °F 24.8 °F 93% 30.15 in 10.0 mi West 4.6 mph - N/A   Clear
3:15 AM 26.6 °F 20.0 °F 24.8 °F 93% 30.15 in 10.0 mi WNW 5.8 mph - N/A   Clear
3:35 AM 26.6 °F 19.1 °F 26.6 °F 100% 30.15 in 10.0 mi WNW 6.9 mph - N/A   Clear
3:55 AM 26.6 °F 20.0 °F 24.8 °F 93% 30.16 in 10.0 mi NW 5.8 mph - N/A   Clear
4:15 AM 26.6 °F 21.2 °F 24.8 °F 93% 30.16 in 10.0 mi West 4.6 mph - N/A   Scattered Clouds
4:35 AM 26.6 °F 22.6 °F 26.6 °F 100% 30.16 in 10.0 mi West 3.5 mph - N/A   Scattered Clouds
4:55 AM 26.6 °F 21.2 °F 26.6 °F 100% 30.16 in 10.0 mi West 4.6 mph - N/A   Mostly Cloudy
5:15 AM 28.4 °F 23.3 °F 26.6 °F 93% 30.16 in 10.0 mi NW 4.6 mph - N/A   Overcast
5:35 AM 28.4 °F 24.6 °F 26.6 °F 93% 30.17 in 10.0 mi WNW 3.5 mph - N/A   Overcast
5:55 AM 30.2 °F - 28.4 °F 93% 30.17 in 10.0 mi Calm Calm - N/A   Overcast
6:15 AM 30.2 °F 24.3 °F 28.4 °F 93% 30.17 in 10.0 mi West 5.8 mph - N/A   Overcast
6:35 AM 30.2 °F 24.3 °F 28.4 °F 93% 30.18 in 10.0 mi West 5.8 mph - N/A   Overcast
6:55 AM 30.2 °F 25.4 °F 28.4 °F 93% 30.19 in 10.0 mi West 4.6 mph - N/A   Overcast
7:15 AM 30.2 °F 25.4 °F 28.4 °F 93% 30.19 in 10.0 mi WSW 4.6 mph - N/A   Overcast
7:35 AM 32.0 °F 28.7 °F 28.4 °F 87% 30.19 in 10.0 mi NW 3.5 mph - N/A   Overcast
7:55 AM 30.2 °F 25.4 °F 30.2 °F 100% 30.21 in 10.0 mi West 4.6 mph - N/A   Overcast
8:15 AM 32.0 °F - 30.2 °F 93% 30.21 in 10.0 mi Calm Calm - N/A   Overcast
8:35 AM 32.0 °F 27.5 °F 30.2 °F 93% 30.21 in 10.0 mi WNW 4.6 mph - N/A   Overcast
8:55 AM 35.6 °F 32.8 °F 30.2 °F 81% 30.21 in 10.0 mi NW 3.5 mph - N/A   Mostly Cloudy
9:15 AM 37.4 °F 34.9 °F 30.2 °F 75% 30.21 in 10.0 mi WNW 3.5 mph - N/A   Mostly Cloudy
9:35 AM 39.2 °F 35.0 °F 30.2 °F 70% 30.21 in 10.0 mi WNW 5.8 mph - N/A   Mostly Cloudy
9:55 AM 41.0 °F 38.0 °F 30.2 °F 65% 30.21 in 10.0 mi West 4.6 mph - N/A   Scattered Clouds
10:15 AM 42.8 °F 39.3 °F 30.2 °F 61% 30.21 in 10.0 mi WNW 5.8 mph - N/A   Clear
10:55 AM 44.6 °F 40.2 °F 28.4 °F 53% 30.21 in 10.0 mi WNW 8.1 mph - N/A   Scattered Clouds
11:15 AM 46.4 °F 42.9 °F 28.4 °F 50% 30.21 in 10.0 mi WNW 6.9 mph - N/A   Scattered Clouds
11:35 AM 46.4 °F 42.9 °F 28.4 °F 50% 30.21 in 10.0 mi West 6.9 mph - N/A   Scattered Clouds
11:55 AM 46.4 °F 41.5 °F 28.4 °F 50% 30.21 in 10.0 mi West 10.4 mph 19.6 mph N/A   Scattered Clouds
12:15 PM 46.4 °F 40.1 °F 28.4 °F 50% 30.21 in 10.0 mi West 15.0 mph 19.6 mph N/A   Scattered Clouds
12:35 PM 46.4 °F 40.1 °F 28.4 °F 50% 30.21 in 10.0 mi West 15.0 mph 21.9 mph N/A   Scattered Clouds
12:55 PM 42.8 °F 36.2 °F 32.0 °F 66% 30.21 in 10.0 mi NW 12.7 mph 27.6 mph N/A   Mostly Cloudy
1:15 PM 46.4 °F 40.7 °F 28.4 °F 50% 30.21 in 10.0 mi WNW 12.7 mph 18.4 mph N/A   Mostly Cloudy
1:35 PM 48.2 °F - 26.6 °F 43% 30.20 in 10.0 mi WNW 19.6 mph 25.3 mph N/A   Mostly Cloudy
1:55 PM 46.4 °F 39.8 °F 26.6 °F 46% 30.20 in 10.0 mi WNW 16.1 mph 25.3 mph N/A   Mostly Cloudy
2:15 PM 50.0 °F - 26.6 °F 40% 30.19 in 10.0 mi WNW 18.4 mph 24.2 mph N/A   Mostly Cloudy
2:35 PM 48.2 °F - 24.8 °F 40% 30.19 in 10.0 mi West 20.7 mph 28.8 mph N/A   Mostly Cloudy
2:55 PM 48.2 °F - 26.6 °F 43% 30.19 in 10.0 mi WNW 19.6 mph 29.9 mph N/A   Mostly Cloudy
3:15 PM 48.2 °F - 28.4 °F 46% 30.19 in 10.0 mi WNW 12.7 mph 21.9 mph N/A   Scattered Clouds
3:35 PM 50.0 °F - 26.6 °F 40% 30.19 in 10.0 mi WNW 24.2 mph 29.9 mph N/A   Scattered Clouds
3:55 PM 44.6 °F 35.9 °F 32.0 °F 61% 30.19 in 10.0 mi NW 23.0 mph 36.8 mph N/A Rain Light Rain
4:15 PM 44.6 °F 36.6 °F 32.0 °F 61% 30.20 in 10.0 mi NNW 19.6 mph 24.2 mph N/A   Clear
4:35 PM 44.6 °F 36.9 °F 32.0 °F 61% 30.21 in 10.0 mi NW 18.4 mph 24.2 mph N/A   Clear
4:55 PM 46.4 °F 39.0 °F 30.2 °F 53% 30.21 in 10.0 mi NW 19.6 mph 23.0 mph N/A   Scattered Clouds
5:15 PM 46.4 °F 39.5 °F 28.4 °F 50% 30.21 in 10.0 mi NW 17.3 mph 24.2 mph N/A   Scattered Clouds
5:35 PM 46.4 °F 40.1 °F 28.4 °F 50% 30.20 in 10.0 mi NW 15.0 mph 19.6 mph N/A   Clear
5:55 PM 46.4 °F 40.4 °F 30.2 °F 53% 30.21 in 10.0 mi NW 13.8 mph - N/A   Scattered Clouds
6:15 PM 44.6 °F 38.8 °F 28.4 °F 53% 30.21 in 10.0 mi NNW 11.5 mph 19.6 mph N/A   Scattered Clouds
6:35 PM 42.8 °F 35.8 °F 28.4 °F 57% 30.21 in 10.0 mi NW 13.8 mph 18.4 mph N/A   Scattered Clouds
6:55 PM 42.8 °F 37.0 °F 30.2 °F 61% 30.21 in 10.0 mi NNW 10.4 mph - N/A   Scattered Clouds
7:15 PM 41.0 °F 33.1 °F 30.2 °F 65% 30.21 in 10.0 mi NNW 15.0 mph - N/A   Scattered Clouds
7:35 PM 37.4 °F 32.8 °F 32.0 °F 81% 30.21 in 10.0 mi NNW 5.8 mph - N/A   Mostly Cloudy
7:55 PM 35.6 °F 32.8 °F 30.2 °F 81% 30.21 in 10.0 mi West 3.5 mph - N/A   Mostly Cloudy
8:15 PM 33.8 °F 28.6 °F 30.2 °F 87% 30.21 in 10.0 mi West 5.8 mph - N/A   Scattered Clouds
8:35 PM 32.0 °F 25.6 °F 30.2 °F 93% 30.21 in 10.0 mi West 6.9 mph - N/A   Clear
8:55 PM 32.0 °F 26.4 °F 30.2 °F 93% 30.21 in 10.0 mi West 5.8 mph - N/A   Scattered Clouds
9:15 PM 32.0 °F 25.6 °F 30.2 °F 93% 30.22 in 10.0 mi West 6.9 mph - N/A   Clear
9:35 PM 32.0 °F 27.5 °F 30.2 °F 93% 30.22 in 10.0 mi West 4.6 mph - N/A   Clear
9:55 PM 32.0 °F 27.5 °F 30.2 °F 93% 30.22 in 10.0 mi NW 4.6 mph - N/A   Clear
10:15 PM 28.4 °F 24.6 °F 28.4 °F 100% 30.22 in 10.0 mi NW 3.5 mph - N/A   Clear
10:35 PM 28.4 °F - 28.4 °F 100% 30.22 in 10.0 mi Calm Calm - N/A   Clear
10:55 PM 28.4 °F 22.2 °F 28.4 °F 100% 30.23 in 10.0 mi NW 5.8 mph - N/A   Scattered Clouds
11:15 PM 26.6 °F 22.6 °F 26.6 °F 100% 30.23 in 10.0 mi NW 3.5 mph - N/A   Mostly Cloudy
11:35 PM 28.4 °F - 28.4 °F 100% 30.22 in 10.0 mi Calm Calm - N/A   Scattered Clouds
11:55 PM 28.4 °F 21.2 °F 28.4 °F 100% 30.22 in 10.0 mi NW 6.9 mph - N/A   Clear